sensor_id;sensor_type;location;lat;lon;timestamp;P1;durP1;ratioP1;P2;durP2;ratioP2
35518;SDS011;21627;48.216;16.482;2023-02-01T00:01:06;5.93;;;2.33;;
35518;SDS011;21627;48.216;16.482;2023-02-01T00:03:35;4.33;;;2.20;;
35518;SDS011;21627;48.216;16.482;2023-02-01T00:06:02;4.00;;;2.57;;
35518;SDS011;21627;48.216;16.482;2023-02-01T00:08:30;3.80;;;2.10;;
35518;SDS011;21627;48.216;16.482;2023-02-01T00:11:00;3.37;;;2.10;;
35518;SDS011;21627;48.216;16.482;2023-02-01T00:13:29;3.53;;;2.00;;
35518;SDS011;21627;48.216;16.482;2023-02-01T00:16:03;2.17;;;1.80;;
35518;SDS011;21627;48.216;16.482;2023-02-01T00:18:33;6.50;;;2.30;;
35518;SDS011;21627;48.216;16.482;2023-02-01T00:21:00;2.70;;;2.10;;
35518;SDS011;21627;48.216;16.482;2023-02-01T00:23:31;2.63;;;1.90;;
35518;SDS011;21627;48.216;16.482;2023-02-01T00:26:01;2.57;;;1.97;;
35518;SDS011;21627;48.216;16.482;2023-02-01T00:28:30;2.47;;;1.93;;
35518;SDS011;21627;48.216;16.482;2023-02-01T00:30:59;2.40;;;1.60;;
35518;SDS011;21627;48.216;16.482;2023-02-01T00:33:30;2.43;;;1.90;;
35518;SDS011;21627;48.216;16.482;2023-02-01T00:35:58;2.53;;;1.80;;
35518;SDS011;21627;48.216;16.482;2023-02-01T00:38:30;3.13;;;1.97;;
35518;SDS011;21627;48.216;16.482;2023-02-01T00:41:15;2.17;;;1.80;;
35518;SDS011;21627;48.216;16.482;2023-02-01T00:43:46;5.80;;;2.00;;
35518;SDS011;21627;48.216;16.482;2023-02-01T00:46:15;3.40;;;1.63;;
35518;SDS011;21627;48.216;16.482;2023-02-01T00:48:45;2.80;;;1.90;;
35518;SDS011;21627;48.216;16.482;2023-02-01T00:51:13;2.97;;;1.97;;
35518;SDS011;21627;48.216;16.482;2023-02-01T00:53:47;3.47;;;1.83;;
35518;SDS011;21627;48.216;16.482;2023-02-01T00:56:16;2.27;;;2.00;;
35518;SDS011;21627;48.216;16.482;2023-02-01T00:58:44;3.70;;;2.50;;
35518;SDS011;21627;48.216;16.482;2023-02-01T01:01:24;2.60;;;1.87;;
35518;SDS011;21627;48.216;16.482;2023-02-01T01:03:56;3.13;;;2.23;;
35518;SDS011;21627;48.216;16.482;2023-02-01T01:06:30;3.07;;;2.40;;
35518;SDS011;21627;48.216;16.482;2023-02-01T01:09:00;3.30;;;2.67;;
35518;SDS011;21627;48.216;16.482;2023-02-01T01:11:31;4.60;;;2.67;;
35518;SDS011;21627;48.216;16.482;2023-02-01T01:14:02;8.00;;;2.90;;
35518;SDS011;21627;48.216;16.482;2023-02-01T01:16:31;4.13;;;2.57;;
35518;SDS011;21627;48.216;16.482;2023-02-01T01:18:59;4.30;;;2.53;;
35518;SDS011;21627;48.216;16.482;2023-02-01T01:21:27;3.67;;;2.63;;
35518;SDS011;21627;48.216;16.482;2023-02-01T01:23:59;4.60;;;3.07;;
35518;SDS011;21627;48.216;16.482;2023-02-01T01:26:26;3.47;;;2.60;;
35518;SDS011;21627;48.216;16.482;2023-02-01T01:28:56;2.80;;;2.37;;
35518;SDS011;21627;48.216;16.482;2023-02-01T01:31:25;4.43;;;2.77;;
35518;SDS011;21627;48.216;16.482;2023-02-01T01:33:58;3.87;;;2.50;;
35518;SDS011;21627;48.216;16.482;2023-02-01T01:36:26;2.23;;;2.03;;
35518;SDS011;21627;48.216;16.482;2023-02-01T01:38:55;3.63;;;2.27;;
35518;SDS011;21627;48.216;16.482;2023-02-01T01:41:23;3.97;;;2.83;;
35518;SDS011;21627;48.216;16.482;2023-02-01T01:43:56;2.87;;;2.00;;
35518;SDS011;21627;48.216;16.482;2023-02-01T01:46:35;2.63;;;2.00;;
35518;SDS011;21627;48.216;16.482;2023-02-01T01:51:51;3.07;;;2.00;;
35518;SDS011;21627;48.216;16.482;2023-02-01T01:57:02;4.70;;;1.80;;
35518;SDS011;21627;48.216;16.482;2023-02-01T01:59:38;2.20;;;1.87;;
35518;SDS011;21627;48.216;16.482;2023-02-01T02:02:09;2.10;;;1.80;;
35518;SDS011;21627;48.216;16.482;2023-02-01T02:04:37;5.33;;;2.33;;
35518;SDS011;21627;48.216;16.482;2023-02-01T02:07:05;4.90;;;2.40;;
35518;SDS011;21627;48.216;16.482;2023-02-01T02:09:38;3.67;;;2.60;;
35518;SDS011;21627;48.216;16.482;2023-02-01T02:12:13;3.97;;;2.00;;
35518;SDS011;21627;48.216;16.482;2023-02-01T02:14:40;2.40;;;2.20;;
35518;SDS011;21627;48.216;16.482;2023-02-01T02:35:48;3.63;;;2.30;;
35518;SDS011;21627;48.216;16.482;2023-02-01T02:38:33;2.70;;;2.40;;
35518;SDS011;21627;48.216;16.482;2023-02-01T02:41:59;2.77;;;2.23;;
35518;SDS011;21627;48.216;16.482;2023-02-01T02:45:04;2.57;;;2.17;;
35518;SDS011;21627;48.216;16.482;2023-02-01T02:48:36;6.67;;;2.50;;
35518;SDS011;21627;48.216;16.482;2023-02-01T02:51:25;3.80;;;2.30;;
35518;SDS011;21627;48.216;16.482;2023-02-01T02:54:24;2.77;;;2.17;;
35518;SDS011;21627;48.216;16.482;2023-02-01T02:57:32;6.63;;;2.70;;
35518;SDS011;21627;48.216;16.482;2023-02-01T03:00:30;2.53;;;2.20;;
35518;SDS011;21627;48.216;16.482;2023-02-01T03:03:19;3.17;;;2.57;;
35518;SDS011;21627;48.216;16.482;2023-02-01T03:06:07;3.15;;;2.40;;
35518;SDS011;21627;48.216;16.482;2023-02-01T03:08:45;4.33;;;2.30;;
35518;SDS011;21627;48.216;16.482;2023-02-01T03:11:16;2.50;;;2.30;;
35518;SDS011;21627;48.216;16.482;2023-02-01T03:13:54;3.53;;;2.30;;
35518;SDS011;21627;48.216;16.482;2023-02-01T03:16:33;3.28;;;2.05;;
35518;SDS011;21627;48.216;16.482;2023-02-01T03:19:06;4.03;;;2.47;;
35518;SDS011;21627;48.216;16.482;2023-02-01T03:24:18;5.57;;;2.10;;
35518;SDS011;21627;48.216;16.482;2023-02-01T03:27:11;4.63;;;2.30;;
35518;SDS011;21627;48.216;16.482;2023-02-01T03:32:49;7.20;;;2.50;;
35518;SDS011;21627;48.216;16.482;2023-02-01T03:35:33;4.30;;;2.23;;
35518;SDS011;21627;48.216;16.482;2023-02-01T03:41:55;2.17;;;1.97;;
35518;SDS011;21627;48.216;16.482;2023-02-01T03:47:45;3.05;;;2.20;;
35518;SDS011;21627;48.216;16.482;2023-02-01T03:50:20;3.43;;;2.50;;
35518;SDS011;21627;48.216;16.482;2023-02-01T03:52:53;3.23;;;2.23;;
35518;SDS011;21627;48.216;16.482;2023-02-01T03:55:41;5.43;;;2.80;;
35518;SDS011;21627;48.216;16.482;2023-02-01T04:00:46;3.77;;;2.37;;
35518;SDS011;21627;48.216;16.482;2023-02-01T04:03:24;3.93;;;2.37;;
35518;SDS011;21627;48.216;16.482;2023-02-01T04:05:56;3.87;;;2.07;;
35518;SDS011;21627;48.216;16.482;2023-02-01T04:08:24;3.73;;;2.37;;
35518;SDS011;21627;48.216;16.482;2023-02-01T04:10:51;2.90;;;2.30;;
35518;SDS011;21627;48.216;16.482;2023-02-01T04:13:19;4.13;;;2.50;;
35518;SDS011;21627;48.216;16.482;2023-02-01T04:15:46;4.65;;;2.50;;
35518;SDS011;21627;48.216;16.482;2023-02-01T04:18:19;2.77;;;2.27;;
35518;SDS011;21627;48.216;16.482;2023-02-01T04:20:46;6.27;;;2.67;;
35518;SDS011;21627;48.216;16.482;2023-02-01T04:23:13;4.83;;;2.80;;
35518;SDS011;21627;48.216;16.482;2023-02-01T04:25:42;4.43;;;3.10;;
35518;SDS011;21627;48.216;16.482;2023-02-01T04:28:09;5.63;;;3.20;;
35518;SDS011;21627;48.216;16.482;2023-02-01T04:30:36;6.17;;;2.90;;
35518;SDS011;21627;48.216;16.482;2023-02-01T04:33:03;6.97;;;3.35;;
35518;SDS011;21627;48.216;16.482;2023-02-01T04:35:33;3.70;;;3.00;;
35518;SDS011;21627;48.216;16.482;2023-02-01T04:38:01;8.23;;;3.47;;
35518;SDS011;21627;48.216;16.482;2023-02-01T04:40:28;4.28;;;2.78;;
35518;SDS011;21627;48.216;16.482;2023-02-01T04:42:55;5.03;;;3.03;;
35518;SDS011;21627;48.216;16.482;2023-02-01T04:45:22;7.57;;;3.25;;
35518;SDS011;21627;48.216;16.482;2023-02-01T04:47:49;4.40;;;3.13;;
35518;SDS011;21627;48.216;16.482;2023-02-01T04:50:17;9.07;;;3.72;;
35518;SDS011;21627;48.216;16.482;2023-02-01T04:52:44;4.30;;;3.25;;
35518;SDS011;21627;48.216;16.482;2023-02-01T04:55:12;5.63;;;3.25;;
35518;SDS011;21627;48.216;16.482;2023-02-01T04:57:42;5.17;;;3.50;;
35518;SDS011;21627;48.216;16.482;2023-02-01T05:00:09;4.70;;;3.57;;
35518;SDS011;21627;48.216;16.482;2023-02-01T05:02:37;5.40;;;3.67;;
35518;SDS011;21627;48.216;16.482;2023-02-01T05:05:04;4.00;;;3.20;;
35518;SDS011;21627;48.216;16.482;2023-02-01T05:07:32;6.47;;;3.42;;
35518;SDS011;21627;48.216;16.482;2023-02-01T05:09:59;7.03;;;3.37;;
35518;SDS011;21627;48.216;16.482;2023-02-01T05:12:27;7.57;;;3.50;;
35518;SDS011;21627;48.216;16.482;2023-02-01T05:15:12;4.93;;;3.47;;
35518;SDS011;21627;48.216;16.482;2023-02-01T05:17:40;4.03;;;2.80;;
35518;SDS011;21627;48.216;16.482;2023-02-01T05:20:10;4.93;;;3.27;;
35518;SDS011;21627;48.216;16.482;2023-02-01T05:22:38;3.63;;;2.80;;
35518;SDS011;21627;48.216;16.482;2023-02-01T05:25:08;5.18;;;3.35;;
35518;SDS011;21627;48.216;16.482;2023-02-01T05:27:38;4.30;;;2.83;;
35518;SDS011;21627;48.216;16.482;2023-02-01T05:30:06;3.80;;;3.00;;
35518;SDS011;21627;48.216;16.482;2023-02-01T05:32:34;4.65;;;3.13;;
35518;SDS011;21627;48.216;16.482;2023-02-01T05:35:02;5.40;;;3.17;;
35518;SDS011;21627;48.216;16.482;2023-02-01T05:37:29;5.47;;;3.25;;
35518;SDS011;21627;48.216;16.482;2023-02-01T05:39:56;4.83;;;3.33;;
35518;SDS011;21627;48.216;16.482;2023-02-01T05:42:24;4.87;;;3.33;;
35518;SDS011;21627;48.216;16.482;2023-02-01T05:44:51;5.78;;;2.97;;
35518;SDS011;21627;48.216;16.482;2023-02-01T05:47:18;6.10;;;3.53;;
35518;SDS011;21627;48.216;16.482;2023-02-01T05:49:47;5.60;;;3.45;;
35518;SDS011;21627;48.216;16.482;2023-02-01T05:52:14;4.50;;;3.33;;
35518;SDS011;21627;48.216;16.482;2023-02-01T05:54:46;5.97;;;3.63;;
35518;SDS011;21627;48.216;16.482;2023-02-01T05:57:13;4.68;;;3.28;;
35518;SDS011;21627;48.216;16.482;2023-02-01T05:59:41;6.53;;;3.83;;
35518;SDS011;21627;48.216;16.482;2023-02-01T06:02:11;5.78;;;3.38;;
35518;SDS011;21627;48.216;16.482;2023-02-01T06:04:39;4.87;;;3.40;;
35518;SDS011;21627;48.216;16.482;2023-02-01T06:07:07;6.28;;;3.17;;
35518;SDS011;21627;48.216;16.482;2023-02-01T06:09:39;5.43;;;3.13;;
35518;SDS011;21627;48.216;16.482;2023-02-01T06:12:06;4.53;;;2.90;;
35518;SDS011;21627;48.216;16.482;2023-02-01T06:14:34;5.05;;;3.05;;
35518;SDS011;21627;48.216;16.482;2023-02-01T06:17:01;3.55;;;2.67;;
35518;SDS011;21627;48.216;16.482;2023-02-01T06:19:29;7.80;;;3.45;;
35518;SDS011;21627;48.216;16.482;2023-02-01T06:21:56;6.60;;;3.38;;
35518;SDS011;21627;48.216;16.482;2023-02-01T06:24:23;5.27;;;3.10;;
35518;SDS011;21627;48.216;16.482;2023-02-01T06:26:51;4.30;;;3.17;;
35518;SDS011;21627;48.216;16.482;2023-02-01T06:29:18;4.50;;;2.92;;
35518;SDS011;21627;48.216;16.482;2023-02-01T06:31:45;4.40;;;3.33;;
35518;SDS011;21627;48.216;16.482;2023-02-01T06:34:12;6.50;;;3.63;;
35518;SDS011;21627;48.216;16.482;2023-02-01T06:36:40;9.18;;;3.72;;
35518;SDS011;21627;48.216;16.482;2023-02-01T06:39:07;5.43;;;3.35;;
35518;SDS011;21627;48.216;16.482;2023-02-01T06:41:37;5.55;;;3.90;;
35518;SDS011;21627;48.216;16.482;2023-02-01T06:44:05;5.95;;;3.10;;
35518;SDS011;21627;48.216;16.482;2023-02-01T06:46:32;6.43;;;3.97;;
35518;SDS011;21627;48.216;16.482;2023-02-01T06:48:59;3.50;;;3.20;;
35518;SDS011;21627;48.216;16.482;2023-02-01T06:51:27;6.30;;;3.30;;
35518;SDS011;21627;48.216;16.482;2023-02-01T06:53:56;6.17;;;3.73;;
35518;SDS011;21627;48.216;16.482;2023-02-01T06:56:23;5.13;;;3.20;;
35518;SDS011;21627;48.216;16.482;2023-02-01T06:58:51;8.40;;;3.47;;
35518;SDS011;21627;48.216;16.482;2023-02-01T07:01:22;5.32;;;3.42;;
35518;SDS011;21627;48.216;16.482;2023-02-01T07:03:50;3.92;;;3.13;;
35518;SDS011;21627;48.216;16.482;2023-02-01T07:06:18;5.88;;;3.30;;
35518;SDS011;21627;48.216;16.482;2023-02-01T07:08:45;4.80;;;3.28;;
35518;SDS011;21627;48.216;16.482;2023-02-01T07:11:16;5.45;;;3.80;;
35518;SDS011;21627;48.216;16.482;2023-02-01T07:13:44;7.47;;;3.95;;
35518;SDS011;21627;48.216;16.482;2023-02-01T07:16:13;6.78;;;2.83;;
35518;SDS011;21627;48.216;16.482;2023-02-01T07:18:46;3.00;;;2.70;;
35518;SDS011;21627;48.216;16.482;2023-02-01T07:21:13;3.90;;;2.67;;
35518;SDS011;21627;48.216;16.482;2023-02-01T07:23:41;4.55;;;2.80;;
35518;SDS011;21627;48.216;16.482;2023-02-01T07:26:09;3.80;;;2.90;;
35518;SDS011;21627;48.216;16.482;2023-02-01T07:28:39;2.92;;;2.45;;
35518;SDS011;21627;48.216;16.482;2023-02-01T07:31:14;4.25;;;2.70;;
35518;SDS011;21627;48.216;16.482;2023-02-01T07:33:48;15.15;;;2.65;;
35518;SDS011;21627;48.216;16.482;2023-02-01T07:36:19;6.93;;;2.80;;
35518;SDS011;21627;48.216;16.482;2023-02-01T07:38:46;5.03;;;2.75;;
35518;SDS011;21627;48.216;16.482;2023-02-01T07:41:17;4.13;;;2.67;;
35518;SDS011;21627;48.216;16.482;2023-02-01T07:43:45;7.90;;;2.95;;
35518;SDS011;21627;48.216;16.482;2023-02-01T07:46:12;4.40;;;2.70;;
35518;SDS011;21627;48.216;16.482;2023-02-01T07:48:41;3.20;;;2.33;;
35518;SDS011;21627;48.216;16.482;2023-02-01T07:51:10;3.97;;;2.63;;
35518;SDS011;21627;48.216;16.482;2023-02-01T07:53:40;2.85;;;2.38;;
35518;SDS011;21627;48.216;16.482;2023-02-01T07:56:11;3.45;;;2.50;;
35518;SDS011;21627;48.216;16.482;2023-02-01T07:58:49;3.03;;;2.55;;
35518;SDS011;21627;48.216;16.482;2023-02-01T08:01:23;8.23;;;2.87;;
35518;SDS011;21627;48.216;16.482;2023-02-01T08:03:55;7.50;;;2.50;;
35518;SDS011;21627;48.216;16.482;2023-02-01T08:06:32;4.25;;;2.75;;
35518;SDS011;21627;48.216;16.482;2023-02-01T08:09:00;7.25;;;2.83;;
35518;SDS011;21627;48.216;16.482;2023-02-01T08:11:29;3.25;;;2.60;;
35518;SDS011;21627;48.216;16.482;2023-02-01T08:13:57;6.82;;;3.28;;
35518;SDS011;21627;48.216;16.482;2023-02-01T08:16:24;5.03;;;3.13;;
35518;SDS011;21627;48.216;16.482;2023-02-01T08:18:52;6.00;;;3.00;;
35518;SDS011;21627;48.216;16.482;2023-02-01T08:21:22;8.07;;;2.80;;
35518;SDS011;21627;48.216;16.482;2023-02-01T08:24:03;4.13;;;3.22;;
35518;SDS011;21627;48.216;16.482;2023-02-01T08:26:32;4.32;;;2.65;;
35518;SDS011;21627;48.216;16.482;2023-02-01T08:29:03;3.88;;;2.70;;
35518;SDS011;21627;48.216;16.482;2023-02-01T08:31:32;3.58;;;2.97;;
35518;SDS011;21627;48.216;16.482;2023-02-01T08:34:02;5.50;;;2.72;;
35518;SDS011;21627;48.216;16.482;2023-02-01T08:36:34;4.10;;;2.75;;
35518;SDS011;21627;48.216;16.482;2023-02-01T08:39:04;5.45;;;2.75;;
35518;SDS011;21627;48.216;16.482;2023-02-01T08:41:35;6.88;;;3.17;;
35518;SDS011;21627;48.216;16.482;2023-02-01T08:44:03;4.00;;;3.22;;
35518;SDS011;21627;48.216;16.482;2023-02-01T08:46:30;5.60;;;3.65;;
35518;SDS011;21627;48.216;16.482;2023-02-01T08:48:57;4.63;;;2.92;;
35518;SDS011;21627;48.216;16.482;2023-02-01T08:51:25;5.47;;;2.88;;
35518;SDS011;21627;48.216;16.482;2023-02-01T08:53:52;3.50;;;3.00;;
35518;SDS011;21627;48.216;16.482;2023-02-01T08:56:19;4.82;;;3.20;;
35518;SDS011;21627;48.216;16.482;2023-02-01T08:58:47;4.55;;;3.08;;
35518;SDS011;21627;48.216;16.482;2023-02-01T09:01:15;6.18;;;3.22;;
35518;SDS011;21627;48.216;16.482;2023-02-01T09:03:50;5.85;;;2.53;;
35518;SDS011;21627;48.216;16.482;2023-02-01T09:06:17;5.97;;;2.88;;
35518;SDS011;21627;48.216;16.482;2023-02-01T09:08:44;8.27;;;2.83;;
35518;SDS011;21627;48.216;16.482;2023-02-01T09:11:15;5.07;;;3.10;;
35518;SDS011;21627;48.216;16.482;2023-02-01T09:13:49;5.25;;;2.97;;
35518;SDS011;21627;48.216;16.482;2023-02-01T09:16:16;5.35;;;2.70;;
35518;SDS011;21627;48.216;16.482;2023-02-01T09:18:44;5.95;;;3.13;;
35518;SDS011;21627;48.216;16.482;2023-02-01T09:21:27;5.88;;;2.90;;
35518;SDS011;21627;48.216;16.482;2023-02-01T09:23:55;5.18;;;3.05;;
35518;SDS011;21627;48.216;16.482;2023-02-01T09:26:22;5.18;;;3.47;;
35518;SDS011;21627;48.216;16.482;2023-02-01T09:28:57;5.03;;;3.25;;
35518;SDS011;21627;48.216;16.482;2023-02-01T09:31:25;3.97;;;2.67;;
35518;SDS011;21627;48.216;16.482;2023-02-01T09:33:53;6.00;;;3.05;;
35518;SDS011;21627;48.216;16.482;2023-02-01T09:36:20;4.28;;;3.20;;
35518;SDS011;21627;48.216;16.482;2023-02-01T09:38:47;7.75;;;4.00;;
35518;SDS011;21627;48.216;16.482;2023-02-01T09:47:26;5.10;;;3.38;;
35518;SDS011;21627;48.216;16.482;2023-02-01T09:50:02;5.60;;;3.33;;
35518;SDS011;21627;48.216;16.482;2023-02-01T09:52:51;4.43;;;3.17;;
35518;SDS011;21627;48.216;16.482;2023-02-01T10:01:02;4.45;;;2.90;;
35518;SDS011;21627;48.216;16.482;2023-02-01T10:03:32;4.38;;;2.80;;
35518;SDS011;21627;48.216;16.482;2023-02-01T10:11:45;3.70;;;2.55;;
35518;SDS011;21627;48.216;16.482;2023-02-01T10:18:13;3.70;;;2.50;;
35518;SDS011;21627;48.216;16.482;2023-02-01T10:27:17;3.40;;;2.20;;
35518;SDS011;21627;48.216;16.482;2023-02-01T10:29:52;3.25;;;1.85;;
35518;SDS011;21627;48.216;16.482;2023-02-01T10:32:29;6.38;;;2.00;;
35518;SDS011;21627;48.216;16.482;2023-02-01T10:35:12;4.68;;;2.00;;
35518;SDS011;21627;48.216;16.482;2023-02-01T10:37:43;2.30;;;1.85;;
35518;SDS011;21627;48.216;16.482;2023-02-01T10:42:51;2.42;;;1.92;;
35518;SDS011;21627;48.216;16.482;2023-02-01T10:45:26;1.95;;;1.67;;
35518;SDS011;21627;48.216;16.482;2023-02-01T10:47:57;2.85;;;2.00;;
35518;SDS011;21627;48.216;16.482;2023-02-01T10:50:37;2.55;;;1.85;;
35518;SDS011;21627;48.216;16.482;2023-02-01T10:53:35;2.20;;;1.35;;
35518;SDS011;21627;48.216;16.482;2023-02-01T10:56:14;2.35;;;1.40;;
35518;SDS011;21627;48.216;16.482;2023-02-01T10:58:59;3.10;;;1.90;;
35518;SDS011;21627;48.216;16.482;2023-02-01T11:01:51;2.92;;;1.65;;
35518;SDS011;21627;48.216;16.482;2023-02-01T11:04:31;1.70;;;1.33;;
35518;SDS011;21627;48.216;16.482;2023-02-01T11:07:14;4.35;;;1.50;;
35518;SDS011;21627;48.216;16.482;2023-02-01T11:09:51;2.13;;;1.60;;
35518;SDS011;21627;48.216;16.482;2023-02-01T11:17:50;3.13;;;1.52;;
35518;SDS011;21627;48.216;16.482;2023-02-01T11:20:20;2.40;;;1.90;;
35518;SDS011;21627;48.216;16.482;2023-02-01T11:23:00;2.38;;;1.63;;
35518;SDS011;21627;48.216;16.482;2023-02-01T11:25:28;2.75;;;1.60;;
35518;SDS011;21627;48.216;16.482;2023-02-01T11:28:02;5.20;;;2.00;;
35518;SDS011;21627;48.216;16.482;2023-02-01T11:30:34;3.47;;;1.65;;
35518;SDS011;21627;48.216;16.482;2023-02-01T11:33:07;2.10;;;1.70;;
35518;SDS011;21627;48.216;16.482;2023-02-01T11:35:44;3.83;;;2.05;;
35518;SDS011;21627;48.216;16.482;2023-02-01T11:38:31;4.47;;;2.13;;
35518;SDS011;21627;48.216;16.482;2023-02-01T11:43:58;2.88;;;2.17;;
35518;SDS011;21627;48.216;16.482;2023-02-01T11:46:31;3.22;;;2.42;;
35518;SDS011;21627;48.216;16.482;2023-02-01T11:49:13;2.95;;;2.45;;
35518;SDS011;21627;48.216;16.482;2023-02-01T11:54:53;2.53;;;2.30;;
35518;SDS011;21627;48.216;16.482;2023-02-01T11:57:41;2.65;;;2.10;;
35518;SDS011;21627;48.216;16.482;2023-02-01T12:11:36;7.55;;;2.90;;
35518;SDS011;21627;48.216;16.482;2023-02-01T12:25:59;4.35;;;3.65;;
35518;SDS011;21627;48.216;16.482;2023-02-01T12:38:51;6.15;;;5.13;;
35518;SDS011;21627;48.216;16.482;2023-02-01T12:41:52;5.70;;;3.33;;
35518;SDS011;21627;48.216;16.482;2023-02-01T12:44:50;3.83;;;2.75;;
35518;SDS011;21627;48.216;16.482;2023-02-01T12:52:36;3.45;;;2.10;;
35518;SDS011;21627;48.216;16.482;2023-02-01T12:58:12;3.35;;;2.15;;
35518;SDS011;21627;48.216;16.482;2023-02-01T13:01:48;2.20;;;1.70;;
35518;SDS011;21627;48.216;16.482;2023-02-01T13:04:18;2.40;;;1.55;;
35518;SDS011;21627;48.216;16.482;2023-02-01T13:07:53;4.70;;;1.70;;
35518;SDS011;21627;48.216;16.482;2023-02-01T13:10:18;4.97;;;1.92;;
35518;SDS011;21627;48.216;16.482;2023-02-01T13:13:08;2.45;;;1.70;;
35518;SDS011;21627;48.216;16.482;2023-02-01T13:16:10;1.63;;;1.48;;
35518;SDS011;21627;48.216;16.482;2023-02-01T13:19:05;6.32;;;1.80;;
35518;SDS011;21627;48.216;16.482;2023-02-01T13:21:43;2.40;;;1.60;;
35518;SDS011;21627;48.216;16.482;2023-02-01T13:27:19;3.67;;;1.65;;
35518;SDS011;21627;48.216;16.482;2023-02-01T13:39:45;4.10;;;1.88;;
35518;SDS011;21627;48.216;16.482;2023-02-01T13:44:57;3.33;;;1.83;;
35518;SDS011;21627;48.216;16.482;2023-02-01T13:47:32;1.65;;;1.27;;
35518;SDS011;21627;48.216;16.482;2023-02-01T13:50:16;2.50;;;1.00;;
35518;SDS011;21627;48.216;16.482;2023-02-01T13:55:38;1.33;;;0.90;;
35518;SDS011;21627;48.216;16.482;2023-02-01T13:58:47;2.50;;;1.05;;
35518;SDS011;21627;48.216;16.482;2023-02-01T14:01:36;1.58;;;0.88;;
35518;SDS011;21627;48.216;16.482;2023-02-01T14:04:04;1.17;;;0.68;;
35518;SDS011;21627;48.216;16.482;2023-02-01T14:06:53;0.73;;;0.60;;
35518;SDS011;21627;48.216;16.482;2023-02-01T14:09:31;3.15;;;1.02;;
35518;SDS011;21627;48.216;16.482;2023-02-01T14:13:04;2.10;;;1.05;;
35518;SDS011;21627;48.216;16.482;2023-02-01T14:15:29;1.05;;;0.73;;
35518;SDS011;21627;48.216;16.482;2023-02-01T14:18:00;0.90;;;0.77;;
35518;SDS011;21627;48.216;16.482;2023-02-01T14:20:41;5.72;;;1.00;;
35518;SDS011;21627;48.216;16.482;2023-02-01T14:23:16;1.85;;;0.90;;
35518;SDS011;21627;48.216;16.482;2023-02-01T14:25:46;3.03;;;0.93;;
35518;SDS011;21627;48.216;16.482;2023-02-01T14:28:28;2.83;;;1.10;;
35518;SDS011;21627;48.216;16.482;2023-02-01T14:31:00;8.07;;;1.00;;
35518;SDS011;21627;48.216;16.482;2023-02-01T14:33:41;2.88;;;1.05;;
35518;SDS011;21627;48.216;16.482;2023-02-01T14:36:10;1.73;;;1.10;;
35518;SDS011;21627;48.216;16.482;2023-02-01T14:38:47;2.13;;;1.10;;
35518;SDS011;21627;48.216;16.482;2023-02-01T14:52:34;2.08;;;0.75;;
35518;SDS011;21627;48.216;16.482;2023-02-01T14:55:11;1.27;;;0.80;;
35518;SDS011;21627;48.216;16.482;2023-02-01T14:58:06;0.75;;;0.70;;
35518;SDS011;21627;48.216;16.482;2023-02-01T15:01:31;2.97;;;0.80;;
35518;SDS011;21627;48.216;16.482;2023-02-01T15:04:12;1.95;;;0.63;;
35518;SDS011;21627;48.216;16.482;2023-02-01T15:06:51;0.50;;;0.50;;
35518;SDS011;21627;48.216;16.482;2023-02-01T15:09:47;1.02;;;0.60;;
35518;SDS011;21627;48.216;16.482;2023-02-01T15:12:18;0.52;;;0.50;;
35518;SDS011;21627;48.216;16.482;2023-02-01T15:17:50;4.32;;;0.88;;
35518;SDS011;21627;48.216;16.482;2023-02-01T15:25:32;1.48;;;1.00;;
35518;SDS011;21627;48.216;16.482;2023-02-01T15:28:14;0.80;;;0.80;;
35518;SDS011;21627;48.216;16.482;2023-02-01T15:30:59;0.93;;;0.80;;
35518;SDS011;21627;48.216;16.482;2023-02-01T15:33:30;0.98;;;0.90;;
35518;SDS011;21627;48.216;16.482;2023-02-01T15:36:11;1.17;;;1.08;;
35518;SDS011;21627;48.216;16.482;2023-02-01T15:38:44;4.47;;;1.13;;
35518;SDS011;21627;48.216;16.482;2023-02-01T15:46:21;2.00;;;1.38;;
35518;SDS011;21627;48.216;16.482;2023-02-01T15:49:25;4.05;;;1.70;;
35518;SDS011;21627;48.216;16.482;2023-02-01T15:52:10;1.88;;;1.30;;
35518;SDS011;21627;48.216;16.482;2023-02-01T15:54:52;3.15;;;1.30;;
35518;SDS011;21627;48.216;16.482;2023-02-01T15:57:27;1.67;;;1.30;;
35518;SDS011;21627;48.216;16.482;2023-02-01T16:00:02;5.55;;;1.55;;
35518;SDS011;21627;48.216;16.482;2023-02-01T16:02:58;3.10;;;1.38;;
35518;SDS011;21627;48.216;16.482;2023-02-01T16:08:16;3.97;;;1.20;;
35518;SDS011;21627;48.216;16.482;2023-02-01T16:10:51;1.70;;;1.42;;
35518;SDS011;21627;48.216;16.482;2023-02-01T16:13:20;3.55;;;1.38;;
35518;SDS011;21627;48.216;16.482;2023-02-01T16:15:48;5.60;;;1.30;;
35518;SDS011;21627;48.216;16.482;2023-02-01T16:18:15;4.47;;;1.50;;
35518;SDS011;21627;48.216;16.482;2023-02-01T16:20:44;5.00;;;1.58;;
35518;SDS011;21627;48.216;16.482;2023-02-01T16:23:13;4.18;;;1.27;;
35518;SDS011;21627;48.216;16.482;2023-02-01T16:25:41;4.82;;;1.42;;
35518;SDS011;21627;48.216;16.482;2023-02-01T16:28:08;4.72;;;1.48;;
35518;SDS011;21627;48.216;16.482;2023-02-01T16:30:36;10.40;;;1.40;;
35518;SDS011;21627;48.216;16.482;2023-02-01T16:33:04;7.03;;;1.50;;
35518;SDS011;21627;48.216;16.482;2023-02-01T16:35:41;4.93;;;1.80;;
35518;SDS011;21627;48.216;16.482;2023-02-01T16:38:10;3.65;;;1.52;;
35518;SDS011;21627;48.216;16.482;2023-02-01T16:40:41;3.72;;;1.38;;
35518;SDS011;21627;48.216;16.482;2023-02-01T16:45:49;4.85;;;1.80;;
35518;SDS011;21627;48.216;16.482;2023-02-01T16:48:24;4.88;;;2.17;;
35518;SDS011;21627;48.216;16.482;2023-02-01T16:50:58;5.13;;;1.70;;
35518;SDS011;21627;48.216;16.482;2023-02-01T16:53:43;6.43;;;1.88;;
35518;SDS011;21627;48.216;16.482;2023-02-01T16:56:24;5.88;;;1.77;;
35518;SDS011;21627;48.216;16.482;2023-02-01T16:58:59;8.05;;;2.72;;
35518;SDS011;21627;48.216;16.482;2023-02-01T17:01:28;6.00;;;1.92;;
35518;SDS011;21627;48.216;16.482;2023-02-01T17:03:56;5.30;;;2.05;;
35518;SDS011;21627;48.216;16.482;2023-02-01T17:06:24;4.75;;;1.77;;
35518;SDS011;21627;48.216;16.482;2023-02-01T17:08:54;4.32;;;1.70;;
35518;SDS011;21627;48.216;16.482;2023-02-01T17:11:31;5.63;;;2.13;;
35518;SDS011;21627;48.216;16.482;2023-02-01T17:14:01;2.93;;;1.80;;
35518;SDS011;21627;48.216;16.482;2023-02-01T17:16:42;6.38;;;2.25;;
35518;SDS011;21627;48.216;16.482;2023-02-01T17:19:13;7.75;;;2.10;;
35518;SDS011;21627;48.216;16.482;2023-02-01T17:21:46;7.78;;;2.33;;
35518;SDS011;21627;48.216;16.482;2023-02-01T17:24:20;3.42;;;2.03;;
35518;SDS011;21627;48.216;16.482;2023-02-01T17:27:01;6.22;;;2.55;;
35518;SDS011;21627;48.216;16.482;2023-02-01T17:29:33;4.38;;;2.30;;
35518;SDS011;21627;48.216;16.482;2023-02-01T17:32:01;4.80;;;2.43;;
35518;SDS011;21627;48.216;16.482;2023-02-01T17:34:32;6.40;;;3.42;;
35518;SDS011;21627;48.216;16.482;2023-02-01T17:36:59;8.60;;;3.03;;
35518;SDS011;21627;48.216;16.482;2023-02-01T17:39:28;8.00;;;3.20;;
35518;SDS011;21627;48.216;16.482;2023-02-01T17:44:42;4.07;;;2.97;;
35518;SDS011;21627;48.216;16.482;2023-02-01T17:47:10;6.50;;;3.20;;
35518;SDS011;21627;48.216;16.482;2023-02-01T17:49:39;6.72;;;2.55;;
35518;SDS011;21627;48.216;16.482;2023-02-01T17:52:09;6.73;;;2.73;;
35518;SDS011;21627;48.216;16.482;2023-02-01T17:54:44;5.18;;;2.75;;
35518;SDS011;21627;48.216;16.482;2023-02-01T17:57:16;4.93;;;2.88;;
35518;SDS011;21627;48.216;16.482;2023-02-01T17:59:43;6.97;;;3.10;;
35518;SDS011;21627;48.216;16.482;2023-02-01T18:02:15;5.50;;;2.43;;
35518;SDS011;21627;48.216;16.482;2023-02-01T18:04:50;6.37;;;2.57;;
35518;SDS011;21627;48.216;16.482;2023-02-01T18:07:19;5.43;;;2.60;;